sensor_id;sensor_type;location;lat;lon;timestamp;pressure;altitude;pressure_sealevel;temperature
20730;BMP280;10526;50.850;12.928;2023-01-29T00:01:14;99012.16;;;-1.74
20730;BMP280;10526;50.850;12.928;2023-01-29T00:05:36;99010.06;;;-1.72
20730;BMP280;10526;50.850;12.928;2023-01-29T00:09:58;99003.28;;;-1.73
20730;BMP280;10526;50.850;12.928;2023-01-29T00:14:20;98999.63;;;-1.72
20730;BMP280;10526;50.850;12.928;2023-01-29T00:18:42;98994.50;;;-1.82
20730;BMP280;10526;50.850;12.928;2023-01-29T00:23:04;98986.97;;;-1.88
20730;BMP280;10526;50.850;12.928;2023-01-29T00:27:26;98987.22;;;-1.85
20730;BMP280;10526;50.850;12.928;2023-01-29T00:31:48;98977.84;;;-1.86
20730;BMP280;10526;50.850;12.928;2023-01-29T00:36:12;98978.38;;;-1.89
20730;BMP280;10526;50.850;12.928;2023-01-29T00:40:38;98974.72;;;-1.88
20730;BMP280;10526;50.850;12.928;2023-01-29T00:45:19;98978.66;;;-1.90
20730;BMP280;10526;50.850;12.928;2023-01-29T00:49:41;98969.78;;;-1.89
20730;BMP280;10526;50.850;12.928;2023-01-29T00:54:04;98961.16;;;-1.90
20730;BMP280;10526;50.850;12.928;2023-01-29T00:58:27;98972.63;;;-1.86
20730;BMP280;10526;50.850;12.928;2023-01-29T01:02:55;98963.25;;;-1.87
20730;BMP280;10526;50.850;12.928;2023-01-29T01:07:26;98969.50;;;-1.88
20730;BMP280;10526;50.850;12.928;2023-01-29T01:11:49;98977.59;;;-1.89
20730;BMP280;10526;50.850;12.928;2023-01-29T01:16:16;98988.59;;;-1.92
20730;BMP280;10526;50.850;12.928;2023-01-29T01:20:41;98981.63;;;-1.97
20730;BMP280;10526;50.850;12.928;2023-01-29T01:25:03;98973.09;;;-2.03
20730;BMP280;10526;50.850;12.928;2023-01-29T01:29:26;98970.75;;;-2.04
20730;BMP280;10526;50.850;12.928;2023-01-29T01:33:48;98959.09;;;-2.12
20730;BMP280;10526;50.850;12.928;2023-01-29T01:38:13;98967.00;;;-2.17
20730;BMP280;10526;50.850;12.928;2023-01-29T01:42:35;98972.72;;;-2.15
20730;BMP280;10526;50.850;12.928;2023-01-29T01:46:59;98964.09;;;-2.15
20730;BMP280;10526;50.850;12.928;2023-01-29T01:51:24;98961.47;;;-2.15
20730;BMP280;10526;50.850;12.928;2023-01-29T01:55:55;98957.09;;;-2.20
20730;BMP280;10526;50.850;12.928;2023-01-29T02:00:21;98956.84;;;-2.19
20730;BMP280;10526;50.850;12.928;2023-01-29T02:04:47;98954.56;;;-2.25
20730;BMP280;10526;50.850;12.928;2023-01-29T02:09:35;98963.81;;;-2.38
20730;BMP280;10526;50.850;12.928;2023-01-29T02:13:59;98966.53;;;-2.48
20730;BMP280;10526;50.850;12.928;2023-01-29T02:18:21;98953.09;;;-2.60
20730;BMP280;10526;50.850;12.928;2023-01-29T02:32:57;98935.38;;;-3.27
20730;BMP280;10526;50.850;12.928;2023-01-29T02:37:32;98929.22;;;-3.41
20730;BMP280;10526;50.850;12.928;2023-01-29T02:42:23;98928.25;;;-3.55
20730;BMP280;10526;50.850;12.928;2023-01-29T02:47:03;98927.84;;;-3.73
20730;BMP280;10526;50.850;12.928;2023-01-29T02:51:37;98936.22;;;-3.86
20730;BMP280;10526;50.850;12.928;2023-01-29T02:56:20;98949.28;;;-3.96
20730;BMP280;10526;50.850;12.928;2023-01-29T03:00:47;98943.81;;;-4.00
20730;BMP280;10526;50.850;12.928;2023-01-29T03:05:24;98944.31;;;-3.98
20730;BMP280;10526;50.850;12.928;2023-01-29T03:09:50;98940.69;;;-4.02
20730;BMP280;10526;50.850;12.928;2023-01-29T03:14:27;98957.31;;;-3.98
20730;BMP280;10526;50.850;12.928;2023-01-29T03:19:22;98946.16;;;-3.93
20730;BMP280;10526;50.850;12.928;2023-01-29T03:23:45;98944.31;;;-3.93
20730;BMP280;10526;50.850;12.928;2023-01-29T03:28:27;98938.09;;;-3.97
20730;BMP280;10526;50.850;12.928;2023-01-29T03:33:11;98951.38;;;-4.03
20730;BMP280;10526;50.850;12.928;2023-01-29T03:37:46;98956.59;;;-4.09
20730;BMP280;10526;50.850;12.928;2023-01-29T03:57:03;98944.28;;;-3.82
20730;BMP280;10526;50.850;12.928;2023-01-29T04:01:38;98948.69;;;-3.83
20730;BMP280;10526;50.850;12.928;2023-01-29T04:06:15;98947.88;;;-3.78
20730;BMP280;10526;50.850;12.928;2023-01-29T04:10:48;98940.13;;;-3.89
20730;BMP280;10526;50.850;12.928;2023-01-29T04:15:14;98938.34;;;-3.93
20730;BMP280;10526;50.850;12.928;2023-01-29T04:19:38;98927.16;;;-3.99
20730;BMP280;10526;50.850;12.928;2023-01-29T04:24:01;98923.00;;;-4.00
20730;BMP280;10526;50.850;12.928;2023-01-29T04:28:35;98931.06;;;-4.01
20730;BMP280;10526;50.850;12.928;2023-01-29T04:33:24;98918.09;;;-4.06
20730;BMP280;10526;50.850;12.928;2023-01-29T04:48:18;98899.94;;;-4.22
20730;BMP280;10526;50.850;12.928;2023-01-29T04:53:05;98891.38;;;-4.22
20730;BMP280;10526;50.850;12.928;2023-01-29T05:02:05;98862.28;;;-4.35
20730;BMP280;10526;50.850;12.928;2023-01-29T05:06:30;98857.88;;;-4.39
20730;BMP280;10526;50.850;12.928;2023-01-29T05:10:54;98849.31;;;-4.45
20730;BMP280;10526;50.850;12.928;2023-01-29T05:15:23;98855.81;;;-4.47
20730;BMP280;10526;50.850;12.928;2023-01-29T05:19:47;98850.38;;;-4.51
20730;BMP280;10526;50.850;12.928;2023-01-29T05:24:11;98849.09;;;-4.59
20730;BMP280;10526;50.850;12.928;2023-01-29T05:28:34;98850.41;;;-4.66
20730;BMP280;10526;50.850;12.928;2023-01-29T05:32:57;98855.63;;;-4.71
20730;BMP280;10526;50.850;12.928;2023-01-29T05:37:19;98853.84;;;-4.76
20730;BMP280;10526;50.850;12.928;2023-01-29T05:41:42;98850.19;;;-4.85
20730;BMP280;10526;50.850;12.928;2023-01-29T05:46:04;98840.34;;;-4.88
20730;BMP280;10526;50.850;12.928;2023-01-29T05:50:28;98819.81;;;-4.90
20730;BMP280;10526;50.850;12.928;2023-01-29T05:54:50;98832.03;;;-4.90
20730;BMP280;10526;50.850;12.928;2023-01-29T05:59:13;98843.47;;;-4.91
20730;BMP280;10526;50.850;12.928;2023-01-29T06:03:36;98842.94;;;-4.93
20730;BMP280;10526;50.850;12.928;2023-01-29T06:07:58;98848.13;;;-4.93
20730;BMP280;10526;50.850;12.928;2023-01-29T06:12:20;98840.63;;;-4.95
20730;BMP280;10526;50.850;12.928;2023-01-29T06:16:41;98856.19;;;-4.95
20730;BMP280;10526;50.850;12.928;2023-01-29T06:21:06;98863.44;;;-4.97
20730;BMP280;10526;50.850;12.928;2023-01-29T06:25:29;98870.72;;;-4.94
20730;BMP280;10526;50.850;12.928;2023-01-29T06:29:51;98876.72;;;-4.88
20730;BMP280;10526;50.850;12.928;2023-01-29T06:34:13;98883.97;;;-4.80
20730;BMP280;10526;50.850;12.928;2023-01-29T06:38:35;98872.03;;;-4.76
20730;BMP280;10526;50.850;12.928;2023-01-29T06:42:59;98868.91;;;-4.73
20730;BMP280;10526;50.850;12.928;2023-01-29T06:47:23;98874.59;;;-4.71
20730;BMP280;10526;50.850;12.928;2023-01-29T06:51:45;98877.19;;;-4.71
20730;BMP280;10526;50.850;12.928;2023-01-29T06:56:08;98886.28;;;-4.68
20730;BMP280;10526;50.850;12.928;2023-01-29T07:00:30;98902.66;;;-4.58
20730;BMP280;10526;50.850;12.928;2023-01-29T07:04:52;98910.41;;;-4.37
20730;BMP280;10526;50.850;12.928;2023-01-29T07:09:14;98928.75;;;-4.08
20730;BMP280;10526;50.850;12.928;2023-01-29T07:13:36;98946.31;;;-3.74
20730;BMP280;10526;50.850;12.928;2023-01-29T07:18:00;98950.34;;;-3.48
20730;BMP280;10526;50.850;12.928;2023-01-29T07:22:23;98958.06;;;-3.32
20730;BMP280;10526;50.850;12.928;2023-01-29T07:26:45;98954.59;;;-3.18
20730;BMP280;10526;50.850;12.928;2023-01-29T07:31:08;98956.44;;;-3.18
20730;BMP280;10526;50.850;12.928;2023-01-29T07:35:39;98968.41;;;-3.17
20730;BMP280;10526;50.850;12.928;2023-01-29T07:40:01;98971.41;;;-3.05
20730;BMP280;10526;50.850;12.928;2023-01-29T07:44:25;98974.22;;;-2.91
20730;BMP280;10526;50.850;12.928;2023-01-29T07:48:48;98974.91;;;-2.80
20730;BMP280;10526;50.850;12.928;2023-01-29T07:53:14;98974.50;;;-2.63
20730;BMP280;10526;50.850;12.928;2023-01-29T07:57:36;98967.19;;;-2.61
20730;BMP280;10526;50.850;12.928;2023-01-29T08:01:58;98966.13;;;-2.66
20730;BMP280;10526;50.850;12.928;2023-01-29T08:06:20;98971.94;;;-2.69
20730;BMP280;10526;50.850;12.928;2023-01-29T08:10:42;98950.50;;;-2.66
20730;BMP280;10526;50.850;12.928;2023-01-29T08:15:05;98951.56;;;-2.61
20730;BMP280;10526;50.850;12.928;2023-01-29T08:19:27;98953.31;;;-2.57
20730;BMP280;10526;50.850;12.928;2023-01-29T08:23:49;98931.91;;;-2.83
20730;BMP280;10526;50.850;12.928;2023-01-29T08:28:11;98925.59;;;-2.77
20730;BMP280;10526;50.850;12.928;2023-01-29T08:32:33;98925.41;;;-2.85
20730;BMP280;10526;50.850;12.928;2023-01-29T08:36:55;98923.91;;;-2.97
20730;BMP280;10526;50.850;12.928;2023-01-29T08:41:17;98917.94;;;-2.92
20730;BMP280;10526;50.850;12.928;2023-01-29T08:45:42;98923.56;;;-2.85
20730;BMP280;10526;50.850;12.928;2023-01-29T08:50:05;98916.75;;;-2.81
20730;BMP280;10526;50.850;12.928;2023-01-29T08:54:28;98907.38;;;-2.77
20730;BMP280;10526;50.850;12.928;2023-01-29T08:58:51;98919.38;;;-2.81
20730;BMP280;10526;50.850;12.928;2023-01-29T09:03:13;98920.94;;;-2.80
20730;BMP280;10526;50.850;12.928;2023-01-29T09:07:35;98949.34;;;-2.49
20730;BMP280;10526;50.850;12.928;2023-01-29T09:11:57;98940.81;;;-2.36
20730;BMP280;10526;50.850;12.928;2023-01-29T09:16:19;98932.75;;;-2.34
20730;BMP280;10526;50.850;12.928;2023-01-29T09:20:41;98925.03;;;-2.45
20730;BMP280;10526;50.850;12.928;2023-01-29T09:25:04;98930.94;;;-2.39
20730;BMP280;10526;50.850;12.928;2023-01-29T09:29:26;98936.13;;;-2.10
20730;BMP280;10526;50.850;12.928;2023-01-29T09:33:48;98928.47;;;-1.82
20730;BMP280;10526;50.850;12.928;2023-01-29T09:38:11;98931.09;;;-1.82
20730;BMP280;10526;50.850;12.928;2023-01-29T09:42:43;98927.97;;;-1.65
20730;BMP280;10526;50.850;12.928;2023-01-29T09:47:14;98907.34;;;-1.48
20730;BMP280;10526;50.850;12.928;2023-01-29T09:51:45;98908.75;;;-1.37
20730;BMP280;10526;50.850;12.928;2023-01-29T09:56:20;98893.00;;;-1.32
20730;BMP280;10526;50.850;12.928;2023-01-29T10:01:22;98876.78;;;-1.48
20730;BMP280;10526;50.850;12.928;2023-01-29T10:06:20;98848.41;;;-1.54
20730;BMP280;10526;50.850;12.928;2023-01-29T10:16:09;98837.38;;;-1.51
20730;BMP280;10526;50.850;12.928;2023-01-29T10:25:39;98822.00;;;-0.92
20730;BMP280;10526;50.850;12.928;2023-01-29T10:30:07;98841.97;;;-0.83
20730;BMP280;10526;50.850;12.928;2023-01-29T10:34:48;98846.75;;;-0.35
20730;BMP280;10526;50.850;12.928;2023-01-29T10:39:21;98840.59;;;-0.03
20730;BMP280;10526;50.850;12.928;2023-01-29T10:44:14;98833.63;;;0.15
20730;BMP280;10526;50.850;12.928;2023-01-29T10:54:35;98815.72;;;-0.14
20730;BMP280;10526;50.850;12.928;2023-01-29T10:59:34;98811.63;;;0.16
20730;BMP280;10526;50.850;12.928;2023-01-29T11:04:04;98790.31;;;0.32
20730;BMP280;10526;50.850;12.928;2023-01-29T11:08:38;98795.13;;;0.47
20730;BMP280;10526;50.850;12.928;2023-01-29T11:13:02;98784.88;;;0.68
20730;BMP280;10526;50.850;12.928;2023-01-29T11:17:26;98775.84;;;0.43
20730;BMP280;10526;50.850;12.928;2023-01-29T11:22:16;98757.88;;;0.59
20730;BMP280;10526;50.850;12.928;2023-01-29T11:26:42;98755.28;;;0.67
20730;BMP280;10526;50.850;12.928;2023-01-29T11:31:26;98738.84;;;0.84
20730;BMP280;10526;50.850;12.928;2023-01-29T11:35:49;98711.75;;;1.15
20730;BMP280;10526;50.850;12.928;2023-01-29T11:40:35;98703.28;;;1.09
20730;BMP280;10526;50.850;12.928;2023-01-29T11:44:58;98707.31;;;2.06
20730;BMP280;10526;50.850;12.928;2023-01-29T11:49:32;98712.59;;;3.36
20730;BMP280;10526;50.850;12.928;2023-01-29T11:53:59;98721.88;;;3.34
20730;BMP280;10526;50.850;12.928;2023-01-29T11:58:33;98700.63;;;2.85
20730;BMP280;10526;50.850;12.928;2023-01-29T12:07:33;98677.47;;;2.48
20730;BMP280;10526;50.850;12.928;2023-01-29T12:11:55;98692.75;;;2.97
20730;BMP280;10526;50.850;12.928;2023-01-29T12:16:55;98704.00;;;3.27
20730;BMP280;10526;50.850;12.928;2023-01-29T12:26:34;98687.28;;;2.90
20730;BMP280;10526;50.850;12.928;2023-01-29T12:36:13;98666.69;;;3.58
20730;BMP280;10526;50.850;12.928;2023-01-29T12:46:28;98626.97;;;2.85
20730;BMP280;10526;50.850;12.928;2023-01-29T12:50:52;98626.69;;;2.78
20730;BMP280;10526;50.850;12.928;2023-01-29T12:55:24;98613.84;;;2.97
20730;BMP280;10526;50.850;12.928;2023-01-29T12:59:57;98628.03;;;2.84
20730;BMP280;10526;50.850;12.928;2023-01-29T13:04:35;98618.75;;;2.65
20730;BMP280;10526;50.850;12.928;2023-01-29T13:09:12;98615.56;;;2.30
20730;BMP280;10526;50.850;12.928;2023-01-29T13:23:24;98620.66;;;1.97
20730;BMP280;10526;50.850;12.928;2023-01-29T13:27:50;98599.28;;;1.69
20730;BMP280;10526;50.850;12.928;2023-01-29T13:32:24;98601.75;;;1.83
20730;BMP280;10526;50.850;12.928;2023-01-29T13:36:56;98589.56;;;1.78
20730;BMP280;10526;50.850;12.928;2023-01-29T13:41:33;98594.06;;;1.60
20730;BMP280;10526;50.850;12.928;2023-01-29T13:45:55;98598.13;;;1.58
20730;BMP280;10526;50.850;12.928;2023-01-29T13:50:19;98604.38;;;1.27
20730;BMP280;10526;50.850;12.928;2023-01-29T13:55:08;98595.56;;;1.14
20730;BMP280;10526;50.850;12.928;2023-01-29T13:59:52;98600.06;;;0.96
20730;BMP280;10526;50.850;12.928;2023-01-29T14:08:44;98579.84;;;0.62
20730;BMP280;10526;50.850;12.928;2023-01-29T14:22:32;98574.81;;;0.00
20730;BMP280;10526;50.850;12.928;2023-01-29T14:26:55;98573.84;;;-0.04
20730;BMP280;10526;50.850;12.928;2023-01-29T14:31:42;98568.59;;;-0.04
20730;BMP280;10526;50.850;12.928;2023-01-29T14:36:13;98565.19;;;-0.13
20730;BMP280;10526;50.850;12.928;2023-01-29T14:40:36;98570.28;;;-0.08
20730;BMP280;10526;50.850;12.928;2023-01-29T14:45:37;98578.81;;;0.06
20730;BMP280;10526;50.850;12.928;2023-01-29T14:50:52;98567.59;;;0.23
20730;BMP280;10526;50.850;12.928;2023-01-29T14:54:47;98583.78;;;0.16
20730;BMP280;10526;50.850;12.928;2023-01-29T14:59:29;98584.22;;;0.10
20730;BMP280;10526;50.850;12.928;2023-01-29T15:04:19;98591.91;;;0.06
20730;BMP280;10526;50.850;12.928;2023-01-29T15:14:34;98576.75;;;-0.14
20730;BMP280;10526;50.850;12.928;2023-01-29T15:19:58;98569.97;;;-0.38
20730;BMP280;10526;50.850;12.928;2023-01-29T15:24:04;98578.16;;;-0.62
20730;BMP280;10526;50.850;12.928;2023-01-29T15:28:29;98571.91;;;-0.75
20730;BMP280;10526;50.850;12.928;2023-01-29T15:32:52;98561.66;;;-0.93
20730;BMP280;10526;50.850;12.928;2023-01-29T15:37:30;98562.19;;;-1.05
20730;BMP280;10526;50.850;12.928;2023-01-29T15:42:33;98555.69;;;-1.08
20730;BMP280;10526;50.850;12.928;2023-01-29T15:47:02;98554.81;;;-1.03
20730;BMP280;10526;50.850;12.928;2023-01-29T15:51:26;98555.19;;;-0.96
20730;BMP280;10526;50.850;12.928;2023-01-29T15:55:48;98557.31;;;-0.98
20730;BMP280;10526;50.850;12.928;2023-01-29T16:00:25;98552.63;;;-1.10
20730;BMP280;10526;50.850;12.928;2023-01-29T16:04:48;98543.16;;;-1.19
20730;BMP280;10526;50.850;12.928;2023-01-29T16:09:17;98553.28;;;-1.27
20730;BMP280;10526;50.850;12.928;2023-01-29T16:13:40;98552.84;;;-0.98
20730;BMP280;10526;50.850;12.928;2023-01-29T16:18:22;98542.91;;;-1.32
20730;BMP280;10526;50.850;12.928;2023-01-29T16:22:45;98539.06;;;-1.48
20730;BMP280;10526;50.850;12.928;2023-01-29T16:27:12;98545.94;;;-1.66
20730;BMP280;10526;50.850;12.928;2023-01-29T16:31:36;98526.34;;;-1.77
20730;BMP280;10526;50.850;12.928;2023-01-29T16:35:59;98520.94;;;-1.95
20730;BMP280;10526;50.850;12.928;2023-01-29T16:40:34;98530.59;;;-2.09
20730;BMP280;10526;50.850;12.928;2023-01-29T16:45:07;98524.22;;;-2.16
20730;BMP280;10526;50.850;12.928;2023-01-29T16:49:50;98521.88;;;-2.32
20730;BMP280;10526;50.850;12.928;2023-01-29T16:54:13;98518.09;;;-2.39
20730;BMP280;10526;50.850;12.928;2023-01-29T16:58:49;98520.81;;;-2.45
20730;BMP280;10526;50.850;12.928;2023-01-29T17:03:13;98525.06;;;-2.35
20730;BMP280;10526;50.850;12.928;2023-01-29T17:07:37;98512.81;;;-2.21
20730;BMP280;10526;50.850;12.928;2023-01-29T17:12:05;98512.63;;;-2.10
20730;BMP280;10526;50.850;12.928;2023-01-29T17:16:32;98519.69;;;-1.97
20730;BMP280;10526;50.850;12.928;2023-01-29T17:20:54;98517.25;;;-1.94
20730;BMP280;10526;50.850;12.928;2023-01-29T17:25:16;98514.28;;;-1.87
20730;BMP280;10526;50.850;12.928;2023-01-29T17:29:40;98512.22;;;-1.90
20730;BMP280;10526;50.850;12.928;2023-01-29T17:34:02;98509.44;;;-1.94
20730;BMP280;10526;50.850;12.928;2023-01-29T17:38:24;98515.72;;;-1.95
20730;BMP280;10526;50.850;12.928;2023-01-29T17:42:47;98504.22;;;-1.94
20730;BMP280;10526;50.850;12.928;2023-01-29T17:47:12;98499.19;;;-1.90
20730;BMP280;10526;50.850;12.928;2023-01-29T17:51:35;98507.88;;;-1.95
20730;BMP280;10526;50.850;12.928;2023-01-29T17:55:57;98506.75;;;-2.02
20730;BMP280;10526;50.850;12.928;2023-01-29T18:00:22;98503.44;;;-2.08
20730;BMP280;10526;50.850;12.928;2023-01-29T18:04:44;98503.06;;;-2.01
20730;BMP280;10526;50.850;12.928;2023-01-29T18:09:14;98502.41;;;-2.07
20730;BMP280;10526;50.850;12.928;2023-01-29T18:13:36;98496.88;;;-2.05
20730;BMP280;10526;50.850;12.928;2023-01-29T18:17:58;98485.78;;;-2.11
20730;BMP280;10526;50.850;12.928;2023-01-29T18:22:19;98489.72;;;-2.13
20730;BMP280;10526;50.850;12.928;2023-01-29T18:26:42;98480.94;;;-2.17
20730;BMP280;10526;50.850;12.928;2023-01-29T18:31:04;98482.59;;;-2.22
20730;BMP280;10526;50.850;12.928;2023-01-29T18:35:27;98482.28;;;-2.20
20730;BMP280;10526;50.850;12.928;2023-01-29T18:39:50;98478.03;;;-2.16
20730;BMP280;10526;50.850;12.928;2023-01-29T18:44:12;98471.47;;;-2.13
20730;BMP280;10526;50.850;12.928;2023-01-29T18:48:34;98468.88;;;-2.13
20730;BMP280;10526;50.850;12.928;2023-01-29T18:52:57;98456.97;;;-2.20
20730;BMP280;10526;50.850;12.928;2023-01-29T18:57:19;98432.34;;;-2.27
20730;BMP280;10526;50.850;12.928;2023-01-29T19:02:00;98446.75;;;-2.30
20730;BMP280;10526;50.850;12.928;2023-01-29T19:06:23;98443.44;;;-2.35
20730;BMP280;10526;50.850;12.928;2023-01-29T19:10:45;98434.38;;;-2.38
20730;BMP280;10526;50.850;12.928;2023-01-29T19:15:09;98423.34;;;-2.35
20730;BMP280;10526;50.850;12.928;2023-01-29T19:19:32;98423.06;;;-2.33
20730;BMP280;10526;50.850;12.928;2023-01-29T19:23:55;98411.28;;;-2.31
20730;BMP280;10526;50.850;12.928;2023-01-29T19:28:17;98413.09;;;-2.31
20730;BMP280;10526;50.850;12.928;2023-01-29T19:32:39;98402.47;;;-2.35
20730;BMP280;10526;50.850;12.928;2023-01-29T19:37:02;98389.34;;;-2.44
20730;BMP280;10526;50.850;12.928;2023-01-29T19:41:24;98379.44;;;-2.55
20730;BMP280;10526;50.850;12.928;2023-01-29T19:45:47;98370.47;;;-2.63
20730;BMP280;10526;50.850;12.928;2023-01-29T19:50:11;98369.47;;;-2.81
20730;BMP280;10526;50.850;12.928;2023-01-29T19:54:33;98372.06;;;-2.95
20730;BMP280;10526;50.850;12.928;2023-01-29T19:58:55;98373.88;;;-3.09
20730;BMP280;10526;50.850;12.928;2023-01-29T20:03:18;98382.44;;;-3.22
20730;BMP280;10526;50.850;12.928;2023-01-29T20:07:40;98362.31;;;-3.35
20730;BMP280;10526;50.850;12.928;2023-01-29T20:12:03;98375.50;;;-3.46
20730;BMP280;10526;50.850;12.928;2023-01-29T20:16:25;98360.78;;;-3.55
20730;BMP280;10526;50.850;12.928;2023-01-29T20:20:49;98359.81;;;-3.59
20730;BMP280;10526;50.850;12.928;2023-01-29T20:25:14;98360.47;;;-3.68
20730;BMP280;10526;50.850;12.928;2023-01-29T20:29:40;98358.63;;;-3.67
20730;BMP280;10526;50.850;12.928;2023-01-29T20:34:02;98349.56;;;-3.70
20730;BMP280;10526;50.850;12.928;2023-01-29T20:38:25;98338.38;;;-3.70
20730;BMP280;10526;50.850;12.928;2023-01-29T20:42:52;98344.34;;;-3.70
20730;BMP280;10526;50.850;12.928;2023-01-29T20:47:14;98350.06;;;-3.68
20730;BMP280;10526;50.850;12.928;2023-01-29T20:51:36;98343.31;;;-3.69
20730;BMP280;10526;50.850;12.928;2023-01-29T20:55:59;98350.34;;;-3.69
20730;BMP280;10526;50.850;12.928;2023-01-29T21:00:23;98338.38;;;-3.70
20730;BMP280;10526;50.850;12.928;2023-01-29T21:04:46;98318.63;;;-3.71
20730;BMP280;10526;50.850;12.928;2023-01-29T21:09:08;98304.34;;;-3.74
20730;BMP280;10526;50.850;12.928;2023-01-29T21:13:30;98297.09;;;-3.77
20730;BMP280;10526;50.850;12.928;2023-01-29T21:17:53;98291.41;;;-3.79
20730;BMP280;10526;50.850;12.928;2023-01-29T21:22:16;98279.16;;;-3.78
20730;BMP280;10526;50.850;12.928;2023-01-29T21:26:38;98279.94;;;-3.78
20730;BMP280;10526;50.850;12.928;2023-01-29T21:31:06;98259.34;;;-3.74
20730;BMP280;10526;50.850;12.928;2023-01-29T21:35:29;98260.66;;;-3.77
20730;BMP280;10526;50.850;12.928;2023-01-29T21:39:51;98260.19;;;-3.79
20730;BMP280;10526;50.850;12.928;2023-01-29T21:44:13;98257.81;;;-3.75
20730;BMP280;10526;50.850;12.928;2023-01-29T21:48:38;98233.09;;;-3.78
20730;BMP280;10526;50.850;12.928;2023-01-29T21:53:00;98226.66;;;-3.80
20730;BMP280;10526;50.850;12.928;2023-01-29T21:57:22;98210.25;;;-3.81
20730;BMP280;10526;50.850;12.928;2023-01-29T22:01:47;98203.06;;;-3.84
20730;BMP280;10526;50.850;12.928;2023-01-29T22:06:09;98200.66;;;-3.80
20730;BMP280;10526;50.850;12.928;2023-01-29T22:10:31;98193.00;;;-3.77
20730;BMP280;10526;50.850;12.928;2023-01-29T22:14:56;98178.78;;;-3.66
20730;BMP280;10526;50.850;12.928;2023-01-29T22:19:18;98169.72;;;-3.54
20730;BMP280;10526;50.850;12.928;2023-01-29T22:23:40;98156.25;;;-3.43
20730;BMP280;10526;50.850;12.928;2023-01-29T22:28:02;98147.47;;;-3.33
20730;BMP280;10526;50.850;12.928;2023-01-29T22:32:24;98143.53;;;-3.30
20730;BMP280;10526;50.850;12.928;2023-01-29T22:36:46;98118.25;;;-3.30
20730;BMP280;10526;50.850;12.928;2023-01-29T22:41:09;98097.25;;;-3.33
20730;BMP280;10526;50.850;12.928;2023-01-29T22:45:31;98103.78;;;-3.36
20730;BMP280;10526;50.850;12.928;2023-01-29T22:49:53;98090.31;;;-3.38
20730;BMP280;10526;50.850;12.928;2023-01-29T22:54:15;98077.75;;;-3.36
20730;BMP280;10526;50.850;12.928;2023-01-29T22:58:38;98071.97;;;-3.33
20730;BMP280;10526;50.850;12.928;2023-01-29T23:03:01;98061.44;;;-3.28
20730;BMP280;10526;50.850;12.928;2023-01-29T23:07:25;98046.22;;;-3.21
20730;BMP280;10526;50.850;12.928;2023-01-29T23:11:47;98036.16;;;-3.14
20730;BMP280;10526;50.850;12.928;2023-01-29T23:16:10;98042.31;;;-3.09
20730;BMP280;10526;50.850;12.928;2023-01-29T23:20:32;98026.09;;;-3.06
20730;BMP280;10526;50.850;12.928;2023-01-29T23:24:54;98023.19;;;-3.05
20730;BMP280;10526;50.850;12.928;2023-01-29T23:29:16;98017.06;;;-3.00
20730;BMP280;10526;50.850;12.928;2023-01-29T23:33:39;98002.69;;;-2.98
20730;BMP280;10526;50.850;12.928;2023-01-29T23:38:01;97992.09;;;-3.01
20730;BMP280;10526;50.850;12.928;2023-01-29T23:42:23;97995.91;;;-3.07
20730;BMP280;10526;50.850;12.928;2023-01-29T23:46:45;97974.91;;;-3.11
20730;BMP280;10526;50.850;12.928;2023-01-29T23:51:08;97951.63;;;-3.07
20730;BMP280;10526;50.850;12.928;2023-01-29T23:55:30;97964.53;;;-3.02
20730;BMP280;10526;50.850;12.928;2023-01-29T23:59:52;97954.72;;;-2.97
